createdAt,value
2023-07-30T00:00:14.533Z,7.22
2023-07-30T00:02:41.630Z,4.30
2023-07-30T00:05:08.865Z,5.57
2023-07-30T00:07:36.036Z,3.65
2023-07-30T00:10:03.116Z,8.43
2023-07-30T00:12:30.218Z,8.40
2023-07-30T00:14:57.559Z,4.93
2023-07-30T00:17:24.497Z,9.60
2023-07-30T00:19:51.576Z,8.35
2023-07-30T00:22:22.262Z,5.43
2023-07-30T00:24:50.876Z,6.95
2023-07-30T00:27:17.768Z,7.80
2023-07-30T00:29:44.743Z,7.63
2023-07-30T00:32:12.383Z,5.60
2023-07-30T00:34:39.548Z,11.10
2023-07-30T00:37:06.841Z,7.65
2023-07-30T00:39:33.846Z,10.20
2023-07-30T00:42:00.829Z,6.53
2023-07-30T00:44:28.165Z,7.30
2023-07-30T00:46:55.274Z,6.80
2023-07-30T00:49:22.248Z,8.50
2023-07-30T00:51:49.352Z,12.00
2023-07-30T00:54:16.552Z,8.48
2023-07-30T00:56:51.645Z,13.50
2023-07-30T00:59:18.875Z,9.18
2023-07-30T01:01:48.394Z,13.48
2023-07-30T01:04:18.680Z,8.45
2023-07-30T01:06:45.925Z,11.27
2023-07-30T01:09:13.526Z,10.48
2023-07-30T01:11:44.256Z,10.80
2023-07-30T01:14:11.851Z,9.30
2023-07-30T01:16:39.106Z,7.38
2023-07-30T01:19:07.579Z,7.22
2023-07-30T01:21:36.780Z,10.07
2023-07-30T01:24:05.046Z,12.57
2023-07-30T01:26:38.730Z,11.17
2023-07-30T01:29:10.086Z,17.63
2023-07-30T01:31:40.409Z,13.27
2023-07-30T01:34:10.730Z,9.50
2023-07-30T01:36:39.811Z,10.63
2023-07-30T01:39:08.013Z,11.57
2023-07-30T01:41:35.719Z,14.93
2023-07-30T01:44:03.317Z,17.05
2023-07-30T01:46:31.161Z,11.37
2023-07-30T01:48:58.625Z,15.57
2023-07-30T01:51:25.593Z,13.37
2023-07-30T01:53:52.833Z,17.08
2023-07-30T01:56:19.942Z,11.98
2023-07-30T01:58:46.993Z,11.67
2023-07-30T02:01:14.022Z,16.42
2023-07-30T02:03:41.305Z,14.80
2023-07-30T02:06:08.560Z,21.90
2023-07-30T02:08:35.527Z,22.45
2023-07-30T02:11:02.638Z,20.45
2023-07-30T02:13:30.155Z,19.45
2023-07-30T02:15:57.241Z,20.07
2023-07-30T02:18:24.214Z,14.40
2023-07-30T02:20:51.289Z,19.20
2023-07-30T02:23:18.902Z,18.55
2023-07-30T02:25:46.417Z,19.35
2023-07-30T02:28:15.495Z,18.00
2023-07-30T02:30:42.709Z,20.73
2023-07-30T02:33:09.750Z,18.58
2023-07-30T02:35:36.850Z,20.83
2023-07-30T02:38:04.760Z,21.00
2023-07-30T02:40:32.645Z,23.67
2023-07-30T02:43:00.197Z,21.90
2023-07-30T02:45:27.703Z,23.98
2023-07-30T02:47:55.214Z,24.88
2023-07-30T02:50:22.220Z,28.70
2023-07-30T02:52:49.368Z,22.65
2023-07-30T02:55:17.441Z,28.13
2023-07-30T02:57:44.578Z,17.88
2023-07-30T03:00:12.367Z,27.75
2023-07-30T03:02:39.404Z,19.17
2023-07-30T03:05:06.921Z,24.38
2023-07-30T03:07:34.096Z,27.75
2023-07-30T03:10:01.113Z,22.13
2023-07-30T03:12:28.263Z,26.80
2023-07-30T03:14:55.244Z,26.27
2023-07-30T03:17:22.691Z,23.75
2023-07-30T03:19:49.652Z,23.42
2023-07-30T03:22:18.246Z,28.92
2023-07-30T03:24:48.452Z,25.20
2023-07-30T03:27:15.419Z,30.55
2023-07-30T03:29:42.530Z,24.92
2023-07-30T03:32:09.663Z,25.95
2023-07-30T03:34:37.610Z,33.43
2023-07-30T03:37:04.882Z,31.13
2023-07-30T03:39:32.015Z,28.67
2023-07-30T03:41:59.131Z,31.60
2023-07-30T03:44:26.096Z,29.13
2023-07-30T03:46:53.065Z,25.42
2023-07-30T03:49:20.017Z,23.80
2023-07-30T03:51:47.468Z,23.23
2023-07-30T03:54:14.636Z,28.55
2023-07-30T03:56:41.738Z,33.37
2023-07-30T03:59:09.176Z,29.45
2023-07-30T04:01:36.508Z,31.60
2023-07-30T04:04:04.138Z,32.28
2023-07-30T04:06:31.118Z,32.50
2023-07-30T04:08:58.038Z,33.60
2023-07-30T04:11:26.190Z,29.48
2023-07-30T04:13:53.318Z,32.50
2023-07-30T04:16:20.674Z,26.52
2023-07-30T04:18:47.826Z,32.27
2023-07-30T04:21:15.024Z,35.00
2023-07-30T04:23:42.360Z,28.95
2023-07-30T04:26:09.644Z,38.75
2023-07-30T04:28:37.010Z,36.05
2023-07-30T04:31:04.371Z,34.17
2023-07-30T04:33:31.603Z,33.30
2023-07-30T04:35:58.785Z,32.63
2023-07-30T04:38:26.229Z,38.78
2023-07-30T04:40:53.466Z,35.33
2023-07-30T04:43:20.537Z,33.95
2023-07-30T04:45:53.115Z,38.83
2023-07-30T04:48:20.409Z,39.78
2023-07-30T04:50:47.443Z,31.03
2023-07-30T04:53:14.418Z,33.50
2023-07-30T04:55:41.345Z,35.50
2023-07-30T04:58:08.496Z,35.28
2023-07-30T05:00:36.089Z,39.80
2023-07-30T05:03:03.148Z,34.65
2023-07-30T05:05:30.359Z,28.80
2023-07-30T05:07:58.129Z,35.15
2023-07-30T05:10:25.315Z,32.00
2023-07-30T05:12:52.328Z,28.45
2023-07-30T05:15:19.490Z,29.58
2023-07-30T05:17:46.398Z,30.13
2023-07-30T05:20:13.539Z,36.05
2023-07-30T05:22:40.875Z,29.00
2023-07-30T05:25:08.430Z,27.07
2023-07-30T05:27:36.825Z,26.73
2023-07-30T05:30:04.069Z,30.10
2023-07-30T05:32:31.012Z,33.15
2023-07-30T05:34:58.246Z,34.83
2023-07-30T05:37:25.235Z,30.17
2023-07-30T05:39:52.166Z,32.85
2023-07-30T05:42:19.409Z,29.27
2023-07-30T05:44:46.539Z,38.10
2023-07-30T05:47:13.459Z,39.10
2023-07-30T05:49:40.539Z,30.67
2023-07-30T05:52:07.552Z,33.50
2023-07-30T05:54:34.477Z,30.60
2023-07-30T05:57:01.495Z,35.95
2023-07-30T05:59:28.439Z,37.73
2023-07-30T06:01:58.545Z,35.50
2023-07-30T06:04:25.711Z,31.05
2023-07-30T06:06:52.710Z,31.55
2023-07-30T06:09:19.719Z,33.95
2023-07-30T06:11:46.757Z,32.17
2023-07-30T06:14:13.610Z,32.55
2023-07-30T06:16:41.049Z,34.25
2023-07-30T06:19:08.103Z,37.03
2023-07-30T06:21:35.070Z,36.40
2023-07-30T06:24:02.051Z,30.73
2023-07-30T06:26:29.068Z,30.35
2023-07-30T06:28:56.283Z,34.88
2023-07-30T06:31:23.273Z,29.65
2023-07-30T06:33:50.659Z,33.83
2023-07-30T06:36:17.654Z,33.22
2023-07-30T06:38:44.731Z,30.52
2023-07-30T06:41:11.889Z,29.73
2023-07-30T06:43:39.039Z,27.47
2023-07-30T06:46:06.205Z,30.70
2023-07-30T06:48:33.356Z,31.20
2023-07-30T06:51:00.457Z,21.70
2023-07-30T06:53:27.569Z,26.23
2023-07-30T06:55:54.537Z,26.27
2023-07-30T06:58:21.570Z,23.77
2023-07-30T07:00:48.593Z,29.40
2023-07-30T07:03:15.775Z,30.67
2023-07-30T07:05:45.277Z,29.33
2023-07-30T07:08:12.510Z,22.70
2023-07-30T07:10:39.686Z,25.63
2023-07-30T07:13:06.668Z,25.50
2023-07-30T07:15:33.696Z,25.63
2023-07-30T07:18:00.896Z,26.98
2023-07-30T07:20:28.763Z,21.20
2023-07-30T07:22:55.642Z,29.98
2023-07-30T07:25:23.051Z,28.08
2023-07-30T07:27:50.091Z,22.42
2023-07-30T07:30:17.211Z,25.55
2023-07-30T07:32:44.804Z,25.50
2023-07-30T07:35:11.660Z,27.75
2023-07-30T07:37:38.683Z,26.63
2023-07-30T07:40:06.316Z,30.42
2023-07-30T07:42:33.329Z,25.52
2023-07-30T07:45:00.247Z,23.92
2023-07-30T07:47:27.719Z,28.63
2023-07-30T07:49:55.168Z,30.63
2023-07-30T07:52:22.131Z,22.02
2023-07-30T07:54:49.243Z,26.05
2023-07-30T07:57:16.218Z,22.15
2023-07-30T07:59:46.293Z,25.33
2023-07-30T08:02:13.790Z,25.35
2023-07-30T08:04:41.195Z,26.85
2023-07-30T08:07:08.566Z,20.23
2023-07-30T08:09:35.624Z,17.25
2023-07-30T08:12:02.609Z,17.08
2023-07-30T08:14:31.517Z,20.85
2023-07-30T08:16:58.549Z,19.02
2023-07-30T08:19:25.506Z,18.33
2023-07-30T08:21:52.614Z,18.98
2023-07-30T08:24:19.477Z,20.58
2023-07-30T08:26:48.104Z,19.63
2023-07-30T08:29:15.521Z,17.80
2023-07-30T08:31:43.300Z,14.75
2023-07-30T08:34:10.367Z,15.10
2023-07-30T08:36:37.619Z,19.20
2023-07-30T08:39:05.504Z,23.73
2023-07-30T08:41:33.263Z,18.75
2023-07-30T08:44:00.556Z,18.52
2023-07-30T08:46:28.698Z,18.85
2023-07-30T08:48:58.969Z,14.70
2023-07-30T08:51:27.522Z,16.38
2023-07-30T08:53:55.579Z,15.68
2023-07-30T08:56:22.879Z,14.05
2023-07-30T08:58:52.437Z,14.20
2023-07-30T09:01:19.965Z,16.63
2023-07-30T09:03:50.893Z,17.73
2023-07-30T09:06:18.059Z,16.88
2023-07-30T09:08:45.513Z,16.83
2023-07-30T09:11:12.953Z,14.07
2023-07-30T09:13:41.818Z,14.93
2023-07-30T09:16:13.513Z,14.35
2023-07-30T09:18:45.016Z,12.88
2023-07-30T09:21:13.117Z,9.43
2023-07-30T09:23:45.317Z,10.57
2023-07-30T09:26:13.005Z,14.35
2023-07-30T09:28:41.232Z,10.95
2023-07-30T09:31:21.548Z,12.77
2023-07-30T09:33:49.581Z,13.30
2023-07-30T09:36:19.963Z,18.40
2023-07-30T09:38:48.496Z,11.60
2023-07-30T09:41:16.103Z,15.30
2023-07-30T09:43:43.251Z,10.20
2023-07-30T09:46:10.830Z,8.73
2023-07-30T09:48:38.168Z,11.63
2023-07-30T09:51:07.070Z,14.32
2023-07-30T09:53:36.385Z,9.30
2023-07-30T09:56:09.789Z,11.80
2023-07-30T09:58:39.293Z,10.32
2023-07-30T10:01:07.287Z,9.60
2023-07-30T10:03:36.729Z,8.45
2023-07-30T10:06:05.191Z,8.95
2023-07-30T10:08:37.311Z,7.47
2023-07-30T10:11:09.846Z,10.68
2023-07-30T10:13:38.632Z,9.13
2023-07-30T10:16:14.100Z,8.93
2023-07-30T10:18:42.822Z,9.95
2023-07-30T10:21:11.516Z,7.30
2023-07-30T10:24:01.806Z,7.47
2023-07-30T10:26:35.089Z,15.32
2023-07-30T10:29:14.875Z,6.22
2023-07-30T10:31:43.220Z,7.18
2023-07-30T10:34:11.817Z,8.20
2023-07-30T10:36:51.726Z,7.07
2023-07-30T10:39:19.566Z,5.65
2023-07-30T10:41:49.650Z,7.88
2023-07-30T10:44:27.419Z,5.15
2023-07-30T10:46:56.431Z,6.50
2023-07-30T10:49:23.630Z,6.75
2023-07-30T10:51:54.139Z,7.70
2023-07-30T10:54:21.704Z,5.60
2023-07-30T10:56:48.631Z,5.32
2023-07-30T10:59:17.298Z,6.35
2023-07-30T11:01:47.319Z,8.02
2023-07-30T11:04:24.827Z,10.33
2023-07-30T11:06:52.663Z,4.93
2023-07-30T11:09:24.125Z,9.10
2023-07-30T11:11:52.995Z,5.30
2023-07-30T11:14:21.804Z,5.03
2023-07-30T11:16:54.437Z,4.05
2023-07-30T11:19:23.636Z,5.80
2023-07-30T11:21:54.721Z,5.82
2023-07-30T11:24:25.888Z,8.07
2023-07-30T11:27:00.656Z,7.28
2023-07-30T11:29:28.066Z,5.05
2023-07-30T11:31:59.126Z,4.88
2023-07-30T11:34:28.085Z,6.43
2023-07-30T11:36:56.313Z,6.05
2023-07-30T11:39:25.508Z,6.17
2023-07-30T11:41:52.881Z,5.07
2023-07-30T11:44:39.604Z,8.82
2023-07-30T11:47:12.466Z,4.85
2023-07-30T11:49:39.423Z,5.53
2023-07-30T11:52:08.755Z,4.18
2023-07-30T11:54:35.834Z,6.83
2023-07-30T11:57:02.823Z,6.85
2023-07-30T11:59:32.308Z,7.27
2023-07-30T12:01:59.730Z,7.82
2023-07-30T12:04:31.212Z,6.97
2023-07-30T12:06:58.319Z,8.18
2023-07-30T12:09:28.876Z,7.63
2023-07-30T12:12:03.206Z,8.57
2023-07-30T12:14:44.986Z,7.05
2023-07-30T12:17:12.149Z,5.88
2023-07-30T12:19:39.150Z,3.78
2023-07-30T12:22:06.200Z,8.80
2023-07-30T12:24:33.352Z,8.60
2023-07-30T12:27:01.306Z,6.68
2023-07-30T12:29:29.065Z,4.78
2023-07-30T12:31:57.756Z,4.70
2023-07-30T12:34:25.734Z,3.72
2023-07-30T12:36:52.801Z,7.55
2023-07-30T12:39:19.813Z,4.45
2023-07-30T12:41:46.795Z,6.97
2023-07-30T12:44:13.816Z,4.78
2023-07-30T12:46:41.170Z,5.80
2023-07-30T12:49:08.228Z,8.27
2023-07-30T12:51:35.354Z,6.45
2023-07-30T12:54:02.627Z,4.03
2023-07-30T12:56:29.566Z,6.68
2023-07-30T12:58:56.747Z,15.98
2023-07-30T13:01:24.970Z,3.95
2023-07-30T13:03:53.146Z,3.92
2023-07-30T13:06:21.286Z,7.68
2023-07-30T13:08:48.687Z,2.83
2023-07-30T13:11:15.701Z,6.77
2023-07-30T13:13:42.696Z,2.42
2023-07-30T13:16:09.682Z,4.05
2023-07-30T13:18:36.525Z,5.57
2023-07-30T13:21:05.285Z,5.82
2023-07-30T13:23:33.124Z,3.97
2023-07-30T13:26:00.688Z,6.40
2023-07-30T13:28:28.170Z,9.23
2023-07-30T13:30:55.660Z,4.88
2023-07-30T13:33:22.912Z,7.90
2023-07-30T13:35:50.684Z,9.60
2023-07-30T13:38:18.116Z,3.45
2023-07-30T13:40:44.964Z,5.30
2023-07-30T13:43:12.067Z,4.47
2023-07-30T13:45:39.298Z,6.10
2023-07-30T13:48:06.362Z,5.03
2023-07-30T13:50:33.382Z,6.35
2023-07-30T13:53:00.453Z,2.30
2023-07-30T13:55:27.574Z,6.50
2023-07-30T13:57:54.505Z,2.88
2023-07-30T14:00:21.562Z,8.20
2023-07-30T14:02:49.148Z,6.72
2023-07-30T14:05:16.199Z,5.70
2023-07-30T14:07:43.322Z,4.53
2023-07-30T14:10:10.896Z,5.40
2023-07-30T14:12:37.876Z,3.80
2023-07-30T14:15:05.748Z,4.78
2023-07-30T14:17:32.717Z,3.63
2023-07-30T14:19:59.604Z,10.05
2023-07-30T14:22:26.587Z,9.10
2023-07-30T14:24:53.728Z,7.67
2023-07-30T14:27:20.836Z,9.95
2023-07-30T14:29:47.836Z,5.32
2023-07-30T14:32:14.912Z,7.50
2023-07-30T14:34:41.897Z,3.95
2023-07-30T14:37:10.383Z,9.02
2023-07-30T14:39:37.593Z,10.73
2023-07-30T14:42:04.786Z,8.50
2023-07-30T14:44:32.049Z,4.05
2023-07-30T14:46:59.615Z,7.35
2023-07-30T14:49:27.213Z,6.05
2023-07-30T14:51:54.154Z,7.13
2023-07-30T14:54:21.290Z,7.35
2023-07-30T14:56:48.227Z,7.05
2023-07-30T14:59:15.139Z,7.80
2023-07-30T15:01:42.134Z,10.38
2023-07-30T15:04:09.164Z,7.40
2023-07-30T15:06:37.023Z,7.78
2023-07-30T15:09:04.412Z,6.70
2023-07-30T15:11:31.400Z,8.45
2023-07-30T15:13:58.292Z,9.13
2023-07-30T15:16:25.487Z,9.27
2023-07-30T15:18:52.574Z,7.03
2023-07-30T15:21:19.653Z,6.85
2023-07-30T15:23:47.050Z,7.35
2023-07-30T15:26:14.133Z,7.93
2023-07-30T15:28:41.925Z,5.55
2023-07-30T15:31:09.124Z,7.45
2023-07-30T15:33:36.960Z,10.20
2023-07-30T15:36:04.340Z,8.77
2023-07-30T15:38:31.491Z,7.78
2023-07-30T15:40:59.147Z,7.80
2023-07-30T15:43:26.489Z,7.90
2023-07-30T15:45:54.850Z,9.43
2023-07-30T15:48:22.477Z,16.42
2023-07-30T15:50:49.782Z,11.60
2023-07-30T15:53:16.747Z,10.52
2023-07-30T15:55:45.320Z,13.85
2023-07-30T15:58:12.441Z,9.68
2023-07-30T16:00:39.357Z,14.45
2023-07-30T16:03:08.011Z,10.05
2023-07-30T16:05:35.231Z,10.90
2023-07-30T16:08:02.223Z,13.82
2023-07-30T16:10:29.190Z,12.77
2023-07-30T16:12:57.322Z,9.60
2023-07-30T16:15:28.886Z,12.60
2023-07-30T16:17:56.007Z,10.77
2023-07-30T16:20:24.186Z,9.82
2023-07-30T16:22:51.397Z,7.68
2023-07-30T16:25:18.534Z,13.88
2023-07-30T16:27:45.699Z,8.05
2023-07-30T16:30:12.783Z,12.30
2023-07-30T16:32:39.848Z,17.30
2023-07-30T16:35:07.397Z,10.77
2023-07-30T16:37:34.400Z,22.10
2023-07-30T16:40:01.335Z,13.73
2023-07-30T16:42:28.303Z,15.40
2023-07-30T16:44:55.654Z,14.18
2023-07-30T16:47:22.864Z,13.55
2023-07-30T16:49:50.752Z,10.03
2023-07-30T16:52:18.002Z,13.23
2023-07-30T16:54:45.288Z,15.63
2023-07-30T16:57:12.359Z,11.48
2023-07-30T16:59:41.841Z,11.25
2023-07-30T17:02:08.779Z,9.35
2023-07-30T17:04:35.805Z,6.60
2023-07-30T17:07:02.939Z,7.68
2023-07-30T17:09:29.984Z,10.77
2023-07-30T17:11:56.950Z,10.07
2023-07-30T17:14:23.970Z,12.00
2023-07-30T17:16:51.203Z,8.75
2023-07-30T17:19:18.194Z,9.23
2023-07-30T17:21:45.103Z,8.15
2023-07-30T17:24:12.175Z,5.77
2023-07-30T17:26:39.366Z,4.38
2023-07-30T17:29:06.498Z,5.78
2023-07-30T17:31:33.523Z,6.43
2023-07-30T17:34:01.069Z,4.30
2023-07-30T17:36:28.227Z,4.35
2023-07-30T17:38:55.726Z,2.65
2023-07-30T17:41:23.089Z,5.27
2023-07-30T17:43:50.261Z,4.73
2023-07-30T17:46:19.488Z,4.50
2023-07-30T17:48:46.682Z,3.05
2023-07-30T17:51:17.896Z,3.83
2023-07-30T17:53:45.641Z,8.82
2023-07-30T17:56:12.953Z,2.10
2023-07-30T17:58:40.073Z,5.28
2023-07-30T18:01:07.893Z,3.20
2023-07-30T18:03:36.638Z,5.32
2023-07-30T18:06:04.421Z,2.78
2023-07-30T18:08:31.772Z,3.45
2023-07-30T18:10:58.882Z,3.65
2023-07-30T18:13:26.105Z,5.70
2023-07-30T18:15:53.081Z,5.30
2023-07-30T18:18:21.542Z,4.70
2023-07-30T18:20:48.549Z,5.87
2023-07-30T18:23:15.543Z,8.32
2023-07-30T18:25:42.713Z,5.50
2023-07-30T18:28:09.845Z,3.05
2023-07-30T18:30:39.393Z,5.15
2023-07-30T18:33:10.317Z,4.63
2023-07-30T18:35:38.325Z,4.95
2023-07-30T18:38:05.538Z,6.50
2023-07-30T18:40:36.948Z,6.07
2023-07-30T18:43:05.069Z,4.80
2023-07-30T18:45:34.200Z,4.70
2023-07-30T18:48:01.856Z,7.22
2023-07-30T18:50:31.605Z,5.85
2023-07-30T18:52:58.887Z,8.32
2023-07-30T18:55:25.827Z,5.18
2023-07-30T18:57:52.926Z,8.00
2023-07-30T19:00:19.872Z,6.82
2023-07-30T19:02:47.114Z,7.53
2023-07-30T19:05:14.323Z,5.97
2023-07-30T19:07:41.379Z,6.07
2023-07-30T19:10:08.747Z,5.35
2023-07-30T19:12:35.773Z,7.03
2023-07-30T19:15:03.770Z,4.00
2023-07-30T19:17:31.398Z,6.88
2023-07-30T19:19:58.902Z,8.55
2023-07-30T19:22:25.892Z,5.68
2023-07-30T19:24:52.949Z,5.10
2023-07-30T19:27:19.984Z,7.78
2023-07-30T19:29:46.988Z,2.50
2023-07-30T19:32:14.883Z,4.45
2023-07-30T19:34:41.948Z,4.53
2023-07-30T19:37:09.149Z,7.57
2023-07-30T19:39:36.678Z,3.75
2023-07-30T19:42:04.128Z,4.65
2023-07-30T19:44:31.101Z,3.88
2023-07-30T19:46:58.282Z,2.40
2023-07-30T19:49:26.019Z,5.97
2023-07-30T19:51:53.637Z,6.07
2023-07-30T19:54:20.598Z,3.92
2023-07-30T19:56:47.795Z,2.53
2023-07-30T19:59:14.841Z,5.15
2023-07-30T20:01:42.393Z,3.33
2023-07-30T20:04:09.273Z,4.00
2023-07-30T20:06:37.198Z,1.50
2023-07-30T20:09:04.604Z,4.30
2023-07-30T20:11:31.778Z,2.85
2023-07-30T20:13:58.895Z,4.22
2023-07-30T20:16:26.059Z,2.97
2023-07-30T20:18:52.991Z,1.60
2023-07-30T20:21:25.374Z,2.00
2023-07-30T20:23:52.600Z,3.40
2023-07-30T20:26:19.825Z,1.80
2023-07-30T20:28:56.987Z,2.13
2023-07-30T20:31:23.989Z,2.10
2023-07-30T20:33:51.177Z,3.30
2023-07-30T20:36:22.167Z,1.33
2023-07-30T20:38:50.053Z,1.27
2023-07-30T20:41:17.111Z,3.35
2023-07-30T20:43:44.218Z,3.63
2023-07-30T20:46:12.511Z,1.83
2023-07-30T20:48:41.921Z,1.23
2023-07-30T20:51:10.143Z,4.45
2023-07-30T20:53:37.156Z,1.35
2023-07-30T20:56:04.550Z,1.83
2023-07-30T20:58:31.675Z,1.67
2023-07-30T21:00:58.965Z,2.17
2023-07-30T21:03:26.284Z,2.17
2023-07-30T21:05:53.333Z,1.42
2023-07-30T21:08:20.236Z,3.08
2023-07-30T21:10:47.356Z,2.15
2023-07-30T21:13:14.319Z,2.97
2023-07-30T21:15:42.297Z,1.48
2023-07-30T21:18:09.239Z,1.30
2023-07-30T21:20:37.850Z,1.90
2023-07-30T21:23:05.233Z,1.40
2023-07-30T21:25:33.727Z,3.10
2023-07-30T21:28:00.812Z,1.92
2023-07-30T21:30:30.235Z,1.23
2023-07-30T21:32:59.505Z,2.00
2023-07-30T21:35:26.618Z,2.47
2023-07-30T21:37:53.860Z,3.83
2023-07-30T21:40:20.969Z,1.92
2023-07-30T21:42:48.241Z,2.70
2023-07-30T21:45:15.302Z,3.20
2023-07-30T21:47:42.240Z,3.28
2023-07-30T21:50:09.801Z,3.30
2023-07-30T21:52:38.593Z,5.30
2023-07-30T21:55:06.091Z,5.65
2023-07-30T21:57:33.254Z,4.43
2023-07-30T22:00:00.187Z,3.40
2023-07-30T22:02:27.462Z,4.35
2023-07-30T22:04:54.750Z,2.70
2023-07-30T22:07:21.669Z,5.13
2023-07-30T22:09:48.669Z,2.03
2023-07-30T22:12:15.693Z,1.63
2023-07-30T22:14:42.832Z,1.90
2023-07-30T22:17:09.825Z,2.38
2023-07-30T22:19:36.966Z,2.42
2023-07-30T22:22:04.875Z,5.13
2023-07-30T22:24:31.829Z,2.75
2023-07-30T22:26:58.697Z,3.72
2023-07-30T22:29:25.604Z,2.15
2023-07-30T22:31:52.600Z,1.80
2023-07-30T22:34:19.748Z,2.33
2023-07-30T22:36:46.894Z,3.63
2023-07-30T22:39:13.794Z,2.35
2023-07-30T22:41:40.940Z,2.88
2023-07-30T22:44:07.994Z,2.75
2023-07-30T22:46:35.230Z,1.77
2023-07-30T22:49:02.616Z,1.60
2023-07-30T22:51:29.532Z,2.00
2023-07-30T22:53:56.561Z,1.60
2023-07-30T22:56:23.900Z,1.83
2023-07-30T22:58:50.930Z,1.60
2023-07-30T23:01:18.378Z,1.70
2023-07-30T23:03:45.708Z,2.72
2023-07-30T23:06:12.783Z,1.70
2023-07-30T23:08:41.005Z,2.05
2023-07-30T23:11:09.441Z,1.90
2023-07-30T23:13:36.436Z,2.00
2023-07-30T23:16:03.679Z,1.95
2023-07-30T23:18:32.803Z,1.67
2023-07-30T23:20:59.949Z,1.60
2023-07-30T23:23:26.832Z,1.63
2023-07-30T23:25:53.950Z,2.58
2023-07-30T23:28:21.767Z,2.20
2023-07-30T23:30:48.849Z,1.52
2023-07-30T23:33:16.411Z,2.15
2023-07-30T23:35:43.638Z,1.50
2023-07-30T23:38:10.555Z,2.13
2023-07-30T23:40:37.799Z,4.43
2023-07-30T23:43:06.899Z,2.77
2023-07-30T23:45:34.468Z,4.13
2023-07-30T23:48:01.705Z,2.75
2023-07-30T23:50:28.669Z,3.92
2023-07-30T23:52:55.667Z,6.80
2023-07-30T23:55:22.934Z,5.30
2023-07-30T23:57:50.001Z,13.25
